sensor_id;sensor_type;location;lat;lon;timestamp;pressure;altitude;pressure_sealevel;temperature;humidity
18569;BME280;14780;48.316;-1.050;2023-02-01T00:01:08;100348.22;;;23.55;34.96
18569;BME280;14780;48.316;-1.050;2023-02-01T00:03:53;100344.63;;;23.54;34.93
18569;BME280;14780;48.316;-1.050;2023-02-01T00:06:38;100345.72;;;23.53;34.98
18569;BME280;14780;48.316;-1.050;2023-02-01T00:09:23;100349.88;;;23.56;34.89
18569;BME280;14780;48.316;-1.050;2023-02-01T00:12:08;100345.72;;;23.53;35.04
18569;BME280;14780;48.316;-1.050;2023-02-01T00:14:53;100341.56;;;23.51;35.04
18569;BME280;14780;48.316;-1.050;2023-02-01T00:17:37;100342.75;;;23.55;35.06
18569;BME280;14780;48.316;-1.050;2023-02-01T00:20:22;100347.38;;;23.54;35.02
18569;BME280;14780;48.316;-1.050;2023-02-01T00:23:06;100342.97;;;23.53;35.15
18569;BME280;14780;48.316;-1.050;2023-02-01T00:25:53;100336.72;;;23.53;34.94
18569;BME280;14780;48.316;-1.050;2023-02-01T00:28:38;100340.03;;;23.55;34.85
18569;BME280;14780;48.316;-1.050;2023-02-01T00:31:22;100329.91;;;23.55;34.95
18569;BME280;14780;48.316;-1.050;2023-02-01T00:34:07;100325.50;;;23.54;34.98
18569;BME280;14780;48.316;-1.050;2023-02-01T00:36:53;100328.88;;;23.56;35.00
18569;BME280;14780;48.316;-1.050;2023-02-01T00:39:38;100320.91;;;23.55;34.92
18569;BME280;14780;48.316;-1.050;2023-02-01T00:42:23;100326.38;;;23.55;35.07
18569;BME280;14780;48.316;-1.050;2023-02-01T00:45:08;100323.06;;;23.53;34.94
18569;BME280;14780;48.316;-1.050;2023-02-01T00:47:53;100329.09;;;23.55;34.96
18569;BME280;14780;48.316;-1.050;2023-02-01T00:50:42;100329.31;;;23.53;34.96
18569;BME280;14780;48.316;-1.050;2023-02-01T00:53:27;100324.44;;;23.55;34.85
18569;BME280;14780;48.316;-1.050;2023-02-01T00:56:12;100313.50;;;23.55;34.96
18569;BME280;14780;48.316;-1.050;2023-02-01T00:58:58;100320.06;;;23.54;34.79
18569;BME280;14780;48.316;-1.050;2023-02-01T01:01:42;100321.41;;;23.52;34.84
18569;BME280;14780;48.316;-1.050;2023-02-01T01:04:27;100316.38;;;23.49;34.83
18569;BME280;14780;48.316;-1.050;2023-02-01T01:07:12;100314.25;;;23.51;35.02
18569;BME280;14780;48.316;-1.050;2023-02-01T01:09:57;100318.88;;;23.50;34.88
18569;BME280;14780;48.316;-1.050;2023-02-01T01:12:41;100328.16;;;23.49;35.00
18569;BME280;14780;48.316;-1.050;2023-02-01T01:15:27;100319.34;;;23.47;35.04
18569;BME280;14780;48.316;-1.050;2023-02-01T01:18:11;100328.63;;;23.46;34.97
18569;BME280;14780;48.316;-1.050;2023-02-01T01:20:56;100323.66;;;23.43;35.06
18569;BME280;14780;48.316;-1.050;2023-02-01T01:23:41;100327.47;;;23.42;34.99
18569;BME280;14780;48.316;-1.050;2023-02-01T01:26:28;100322.00;;;23.42;34.91
18569;BME280;14780;48.316;-1.050;2023-02-01T01:29:13;100326.63;;;23.42;34.82
18569;BME280;14780;48.316;-1.050;2023-02-01T01:34:42;100328.41;;;23.37;34.98
18569;BME280;14780;48.316;-1.050;2023-02-01T01:37:27;100329.22;;;23.37;34.92
18569;BME280;14780;48.316;-1.050;2023-02-01T01:40:12;100316.66;;;23.36;34.90
18569;BME280;14780;48.316;-1.050;2023-02-01T01:42:57;100316.66;;;23.36;34.94
18569;BME280;14780;48.316;-1.050;2023-02-01T01:45:43;100326.75;;;23.36;34.91
18569;BME280;14780;48.316;-1.050;2023-02-01T01:48:29;100314.16;;;23.35;34.78
18569;BME280;14780;48.316;-1.050;2023-02-01T01:51:18;100324.25;;;23.34;34.90
18569;BME280;14780;48.316;-1.050;2023-02-01T01:54:26;100328.88;;;23.33;34.85
18569;BME280;14780;48.316;-1.050;2023-02-01T01:57:17;100325.56;;;23.32;34.86
18569;BME280;14780;48.316;-1.050;2023-02-01T02:00:16;100338.13;;;23.33;34.86
18569;BME280;14780;48.316;-1.050;2023-02-01T02:03:23;100341.13;;;23.31;34.82
18569;BME280;14780;48.316;-1.050;2023-02-01T02:06:28;100337.56;;;23.31;34.93
18569;BME280;14780;48.316;-1.050;2023-02-01T02:09:15;100337.78;;;23.29;34.77
18569;BME280;14780;48.316;-1.050;2023-02-01T02:12:00;100327.72;;;23.30;34.92
18569;BME280;14780;48.316;-1.050;2023-02-01T02:14:45;100325.19;;;23.28;34.77
18569;BME280;14780;48.316;-1.050;2023-02-01T02:24:16;100332.81;;;23.26;34.75
18569;BME280;14780;48.316;-1.050;2023-02-01T02:42:30;100356.31;;;23.27;34.75
18569;BME280;14780;48.316;-1.050;2023-02-01T02:45:54;100350.28;;;23.25;34.70
18569;BME280;14780;48.316;-1.050;2023-02-01T02:49:04;100362.84;;;23.26;34.84
18569;BME280;14780;48.316;-1.050;2023-02-01T02:52:09;100360.13;;;23.26;34.69
18569;BME280;14780;48.316;-1.050;2023-02-01T02:55:16;100351.09;;;23.26;34.76
18569;BME280;14780;48.316;-1.050;2023-02-01T02:58:03;100352.16;;;23.25;34.83
18569;BME280;14780;48.316;-1.050;2023-02-01T03:01:08;100354.06;;;23.24;34.70
18569;BME280;14780;48.316;-1.050;2023-02-01T03:04:12;100353.22;;;23.24;34.74
18569;BME280;14780;48.316;-1.050;2023-02-01T03:13:57;100346.34;;;23.21;34.81
18569;BME280;14780;48.316;-1.050;2023-02-01T03:16:50;100342.81;;;23.21;34.72
18569;BME280;14780;48.316;-1.050;2023-02-01T03:19:39;100340.88;;;23.21;34.63
18569;BME280;14780;48.316;-1.050;2023-02-01T03:22:29;100344.47;;;23.22;34.87
18569;BME280;14780;48.316;-1.050;2023-02-01T03:25:22;100342.53;;;23.22;34.72
18569;BME280;14780;48.316;-1.050;2023-02-01T03:28:10;100337.34;;;23.21;34.69
18569;BME280;14780;48.316;-1.050;2023-02-01T03:30:55;100337.34;;;23.21;34.79
18569;BME280;14780;48.316;-1.050;2023-02-01T03:33:41;100332.91;;;23.20;34.83
18569;BME280;14780;48.316;-1.050;2023-02-01T03:39:15;100335.66;;;23.20;34.63
18569;BME280;14780;48.316;-1.050;2023-02-01T03:42:52;100345.53;;;23.21;34.68
18569;BME280;14780;48.316;-1.050;2023-02-01T03:45:20;100339.00;;;23.22;34.67
18569;BME280;14780;48.316;-1.050;2023-02-01T03:48:08;100332.09;;;23.19;34.68
18569;BME280;14780;48.316;-1.050;2023-02-01T03:50:57;100341.09;;;23.20;34.83
18569;BME280;14780;48.316;-1.050;2023-02-01T03:53:45;100333.75;;;23.20;34.74
18569;BME280;14780;48.316;-1.050;2023-02-01T03:56:32;100331.25;;;23.19;34.70
18569;BME280;14780;48.316;-1.050;2023-02-01T03:59:20;100334.00;;;23.19;34.59
18569;BME280;14780;48.316;-1.050;2023-02-01T04:02:06;100330.44;;;23.18;34.73
18569;BME280;14780;48.316;-1.050;2023-02-01T04:04:51;100324.13;;;23.18;34.69
18569;BME280;14780;48.316;-1.050;2023-02-01T04:07:35;100324.13;;;23.18;34.77
18569;BME280;14780;48.316;-1.050;2023-02-01T04:10:20;100323.31;;;23.17;34.77
18569;BME280;14780;48.316;-1.050;2023-02-01T04:13:05;100325.22;;;23.17;34.62
18569;BME280;14780;48.316;-1.050;2023-02-01T04:15:50;100326.06;;;23.17;34.62
18569;BME280;14780;48.316;-1.050;2023-02-01T04:18:34;100335.06;;;23.18;34.71
18569;BME280;14780;48.316;-1.050;2023-02-01T04:21:20;100331.53;;;23.17;34.72
18569;BME280;14780;48.316;-1.050;2023-02-01T04:24:04;100337.22;;;23.16;34.61
18569;BME280;14780;48.316;-1.050;2023-02-01T04:26:50;100340.97;;;23.15;34.70
18569;BME280;14780;48.316;-1.050;2023-02-01T04:29:35;100343.50;;;23.16;34.66
18569;BME280;14780;48.316;-1.050;2023-02-01T04:32:20;100332.34;;;23.18;34.59
18569;BME280;14780;48.316;-1.050;2023-02-01T04:35:05;100333.41;;;23.17;34.64
18569;BME280;14780;48.316;-1.050;2023-02-01T04:37:50;100341.59;;;23.17;34.70
18569;BME280;14780;48.316;-1.050;2023-02-01T04:40:35;100340.97;;;23.15;34.66
18569;BME280;14780;48.316;-1.050;2023-02-01T04:43:21;100343.50;;;23.16;34.64
18569;BME280;14780;48.316;-1.050;2023-02-01T04:46:06;100343.13;;;23.13;34.71
18569;BME280;14780;48.316;-1.050;2023-02-01T04:48:50;100342.88;;;23.14;34.73
18569;BME280;14780;48.316;-1.050;2023-02-01T04:51:35;100349.16;;;23.15;34.74
18569;BME280;14780;48.316;-1.050;2023-02-01T04:54:20;100349.41;;;23.13;34.72
18569;BME280;14780;48.316;-1.050;2023-02-01T04:57:05;100352.97;;;23.14;34.59
18569;BME280;14780;48.316;-1.050;2023-02-01T04:59:50;100350.25;;;23.14;34.76
18569;BME280;14780;48.316;-1.050;2023-02-01T05:02:35;100354.84;;;23.13;34.72
18569;BME280;14780;48.316;-1.050;2023-02-01T05:05:20;100371.47;;;23.12;34.72
18569;BME280;14780;48.316;-1.050;2023-02-01T05:08:05;100361.41;;;23.12;34.63
18569;BME280;14780;48.316;-1.050;2023-02-01T05:10:49;100361.41;;;23.12;34.70
18569;BME280;14780;48.316;-1.050;2023-02-01T05:13:34;100356.16;;;23.11;34.74
18569;BME280;14780;48.316;-1.050;2023-02-01T05:16:34;100354.28;;;23.11;34.56
18569;BME280;14780;48.316;-1.050;2023-02-01T05:19:19;100353.19;;;23.12;34.68
18569;BME280;14780;48.316;-1.050;2023-02-01T05:22:03;100368.75;;;23.12;34.65
18569;BME280;14780;48.316;-1.050;2023-02-01T05:24:48;100351.53;;;23.11;34.71
18569;BME280;14780;48.316;-1.050;2023-02-01T05:27:33;100343.59;;;23.10;34.57
18569;BME280;14780;48.316;-1.050;2023-02-01T05:30:18;100351.53;;;23.11;34.50
18569;BME280;14780;48.316;-1.050;2023-02-01T05:33:03;100346.31;;;23.10;34.55
18569;BME280;14780;48.316;-1.050;2023-02-01T05:35:48;100343.59;;;23.10;34.75
18569;BME280;14780;48.316;-1.050;2023-02-01T05:38:33;100351.78;;;23.10;34.72
18569;BME280;14780;48.316;-1.050;2023-02-01T05:41:18;100350.69;;;23.11;34.51
18569;BME280;14780;48.316;-1.050;2023-02-01T05:44:03;100352.84;;;23.09;34.72
18569;BME280;14780;48.316;-1.050;2023-02-01T05:46:47;100349.03;;;23.10;34.64
18569;BME280;14780;48.316;-1.050;2023-02-01T05:49:32;100352.84;;;23.09;34.62
18569;BME280;14780;48.316;-1.050;2023-02-01T05:52:17;100351.19;;;23.08;34.69
18569;BME280;14780;48.316;-1.050;2023-02-01T05:55:05;100354.72;;;23.08;34.61
18569;BME280;14780;48.316;-1.050;2023-02-01T05:57:49;100352.00;;;23.08;34.50
18569;BME280;14780;48.316;-1.050;2023-02-01T06:00:34;100363.75;;;23.09;34.71
18569;BME280;14780;48.316;-1.050;2023-02-01T06:03:19;100373.03;;;23.08;34.68
18569;BME280;14780;48.316;-1.050;2023-02-01T06:06:03;100374.69;;;23.09;34.53
18569;BME280;14780;48.316;-1.050;2023-02-01T06:08:48;100376.81;;;23.07;34.49
18569;BME280;14780;48.316;-1.050;2023-02-01T06:11:33;100370.53;;;23.06;34.64
18569;BME280;14780;48.316;-1.050;2023-02-01T06:14:17;100373.25;;;23.06;34.74
18569;BME280;14780;48.316;-1.050;2023-02-01T06:17:02;100379.56;;;23.07;34.53
18569;BME280;14780;48.316;-1.050;2023-02-01T06:19:47;100386.69;;;23.08;34.59
18569;BME280;14780;48.316;-1.050;2023-02-01T06:22:33;100401.13;;;23.08;34.59
18569;BME280;14780;48.316;-1.050;2023-02-01T06:25:18;100392.38;;;23.06;34.50
18569;BME280;14780;48.316;-1.050;2023-02-01T06:28:03;100385.25;;;23.05;34.61
18569;BME280;14780;48.316;-1.050;2023-02-01T06:30:50;100397.00;;;23.06;34.64
18569;BME280;14780;48.316;-1.050;2023-02-01T06:33:36;100392.59;;;23.05;34.48
18569;BME280;14780;48.316;-1.050;2023-02-01T06:36:21;100388.81;;;23.06;34.46
18569;BME280;14780;48.316;-1.050;2023-02-01T06:39:06;100378.13;;;23.04;34.65
18569;BME280;14780;48.316;-1.050;2023-02-01T06:41:51;100366.97;;;23.06;34.38
18569;BME280;14780;48.316;-1.050;2023-02-01T06:44:36;100370.75;;;23.05;34.65
18569;BME280;14780;48.316;-1.050;2023-02-01T06:47:20;100382.75;;;23.04;34.58
18569;BME280;14780;48.316;-1.050;2023-02-01T06:50:05;100390.94;;;23.04;34.45
18569;BME280;14780;48.316;-1.050;2023-02-01T06:52:50;100376.47;;;23.03;34.48
18569;BME280;14780;48.316;-1.050;2023-02-01T06:55:34;100371.81;;;23.04;34.37
18569;BME280;14780;48.316;-1.050;2023-02-01T06:58:20;100386.53;;;23.03;34.48
18569;BME280;14780;48.316;-1.050;2023-02-01T07:01:06;100383.81;;;23.03;34.60
18569;BME280;14780;48.316;-1.050;2023-02-01T07:03:51;100389.28;;;23.03;34.60
18569;BME280;14780;48.316;-1.050;2023-02-01T07:06:35;100401.84;;;23.04;34.64
18569;BME280;14780;48.316;-1.050;2023-02-01T07:09:20;100397.47;;;23.03;34.53
18569;BME280;14780;48.316;-1.050;2023-02-01T07:12:05;100405.66;;;23.03;34.55
18569;BME280;14780;48.316;-1.050;2023-02-01T07:14:49;100412.19;;;23.02;34.60
18569;BME280;14780;48.316;-1.050;2023-02-01T07:17:34;100406.72;;;23.02;34.55
18569;BME280;14780;48.316;-1.050;2023-02-01T07:20:19;100407.56;;;23.02;34.51
18569;BME280;14780;48.316;-1.050;2023-02-01T07:23:03;100406.72;;;23.02;34.66
18569;BME280;14780;48.316;-1.050;2023-02-01T07:25:48;100405.06;;;23.01;34.31
18569;BME280;14780;48.316;-1.050;2023-02-01T07:28:34;100396.88;;;23.01;34.58
18569;BME280;14780;48.316;-1.050;2023-02-01T07:31:20;100397.09;;;22.99;34.62
18569;BME280;14780;48.316;-1.050;2023-02-01T07:34:06;100393.31;;;23.00;34.49
18569;BME280;14780;48.316;-1.050;2023-02-01T07:36:50;100391.63;;;22.99;34.67
18569;BME280;14780;48.316;-1.050;2023-02-01T07:39:35;100392.50;;;23.00;34.41
18569;BME280;14780;48.316;-1.050;2023-02-01T07:42:20;100391.41;;;23.01;34.57
18569;BME280;14780;48.316;-1.050;2023-02-01T07:45:05;100389.75;;;23.00;34.52
18569;BME280;14780;48.316;-1.050;2023-02-01T07:47:52;100389.75;;;23.00;34.64
18569;BME280;14780;48.316;-1.050;2023-02-01T07:50:38;100396.03;;;23.00;34.59
18569;BME280;14780;48.316;-1.050;2023-02-01T07:53:23;100390.84;;;22.99;34.46
18569;BME280;14780;48.316;-1.050;2023-02-01T07:56:16;100396.88;;;23.01;34.31
18569;BME280;14780;48.316;-1.050;2023-02-01T07:59:01;100382.63;;;22.99;34.45
18569;BME280;14780;48.316;-1.050;2023-02-01T08:01:46;100390.84;;;22.99;34.44
18569;BME280;14780;48.316;-1.050;2023-02-01T08:04:31;100394.38;;;22.99;34.52
18569;BME280;14780;48.316;-1.050;2023-02-01T08:07:16;100399.03;;;22.99;34.33
18569;BME280;14780;48.316;-1.050;2023-02-01T08:10:01;100406.38;;;22.98;34.49
18569;BME280;14780;48.316;-1.050;2023-02-01T08:12:46;100416.44;;;22.98;34.67
18569;BME280;14780;48.316;-1.050;2023-02-01T08:15:35;100409.09;;;22.98;34.46
18569;BME280;14780;48.316;-1.050;2023-02-01T08:18:21;100403.41;;;23.00;34.48
18569;BME280;14780;48.316;-1.050;2023-02-01T08:21:11;100407.22;;;22.99;34.51
18569;BME280;14780;48.316;-1.050;2023-02-01T08:23:57;100405.50;;;22.98;34.38
18569;BME280;14780;48.316;-1.050;2023-02-01T08:26:41;100405.50;;;22.98;34.51
18569;BME280;14780;48.316;-1.050;2023-02-01T08:29:26;100407.22;;;22.99;34.49
18569;BME280;14780;48.316;-1.050;2023-02-01T08:32:11;100408.25;;;22.98;34.58
18569;BME280;14780;48.316;-1.050;2023-02-01T08:34:55;100419.41;;;22.96;34.63
18569;BME280;14780;48.316;-1.050;2023-02-01T08:37:40;100428.41;;;22.97;34.50
18569;BME280;14780;48.316;-1.050;2023-02-01T08:40:25;100422.97;;;22.97;34.39
18569;BME280;14780;48.316;-1.050;2023-02-01T08:43:09;100421.31;;;22.96;34.39
18569;BME280;14780;48.316;-1.050;2023-02-01T08:45:54;100420.50;;;22.95;34.37
18569;BME280;14780;48.316;-1.050;2023-02-01T08:48:40;100424.03;;;22.96;34.54
18569;BME280;14780;48.316;-1.050;2023-02-01T08:51:25;100427.84;;;22.95;34.41
18569;BME280;14780;48.316;-1.050;2023-02-01T08:54:09;100426.75;;;22.96;34.57
18569;BME280;14780;48.316;-1.050;2023-02-01T08:56:54;100425.09;;;22.95;34.54
18569;BME280;14780;48.316;-1.050;2023-02-01T08:59:39;100433.28;;;22.95;34.41
18569;BME280;14780;48.316;-1.050;2023-02-01T09:02:24;100448.00;;;22.94;34.38
18569;BME280;14780;48.316;-1.050;2023-02-01T09:05:09;100448.00;;;22.94;34.60
18569;BME280;14780;48.316;-1.050;2023-02-01T09:07:55;100451.31;;;22.96;34.41
18569;BME280;14780;48.316;-1.050;2023-02-01T09:10:39;100457.84;;;22.95;34.34
18569;BME280;14780;48.316;-1.050;2023-02-01T09:13:26;100459.75;;;22.94;34.34
18569;BME280;14780;48.316;-1.050;2023-02-01T09:16:11;100476.38;;;22.93;34.57
18569;BME280;14780;48.316;-1.050;2023-02-01T09:18:56;100483.94;;;22.91;34.59
18569;BME280;14780;48.316;-1.050;2023-02-01T09:21:40;100488.38;;;22.92;34.36
18569;BME280;14780;48.316;-1.050;2023-02-01T09:24:25;100492.13;;;22.91;34.57
18569;BME280;14780;48.316;-1.050;2023-02-01T09:27:09;100485.00;;;22.90;34.38
18569;BME280;14780;48.316;-1.050;2023-02-01T09:29:54;100489.66;;;22.89;34.31
18569;BME280;14780;48.316;-1.050;2023-02-01T09:32:39;100495.13;;;22.89;34.69
18569;BME280;14780;48.316;-1.050;2023-02-01T09:35:23;100488.81;;;22.89;34.54
18569;BME280;14780;48.316;-1.050;2023-02-01T09:38:10;100494.88;;;22.91;34.66
18569;BME280;14780;48.316;-1.050;2023-02-01T09:40:55;100494.28;;;22.89;34.45
18569;BME280;14780;48.316;-1.050;2023-02-01T09:46:37;100493.09;;;22.85;34.50
18569;BME280;14780;48.316;-1.050;2023-02-01T09:49:32;100488.22;;;22.87;34.51
18569;BME280;14780;48.316;-1.050;2023-02-01T09:52:19;100487.63;;;22.85;34.67
18569;BME280;14780;48.316;-1.050;2023-02-01T09:55:15;100488.22;;;22.87;34.71
18569;BME280;14780;48.316;-1.050;2023-02-01T10:00:58;100491.75;;;22.87;34.42
18569;BME280;14780;48.316;-1.050;2023-02-01T10:03:43;100486.56;;;22.86;34.72
18569;BME280;14780;48.316;-1.050;2023-02-01T10:06:41;100487.38;;;22.86;34.51
18569;BME280;14780;48.316;-1.050;2023-02-01T10:25:55;100487.16;;;22.88;34.91
18569;BME280;14780;48.316;-1.050;2023-02-01T10:28:22;100488.00;;;22.88;34.99
18569;BME280;14780;48.316;-1.050;2023-02-01T10:31:09;100486.09;;;22.89;35.07
18569;BME280;14780;48.316;-1.050;2023-02-01T10:33:59;100494.28;;;22.89;35.09
18569;BME280;14780;48.316;-1.050;2023-02-01T10:36:55;100491.31;;;22.90;35.02
18569;BME280;14780;48.316;-1.050;2023-02-01T10:39:41;100486.09;;;22.89;34.86
18569;BME280;14780;48.316;-1.050;2023-02-01T10:42:28;100482.28;;;22.90;35.04
18569;BME280;14780;48.316;-1.050;2023-02-01T10:45:25;100482.28;;;22.90;35.03
18569;BME280;14780;48.316;-1.050;2023-02-01T10:48:11;100485.84;;;22.90;34.98
18569;BME280;14780;48.316;-1.050;2023-02-01T10:51:38;100497.84;;;22.89;34.89
18569;BME280;14780;48.316;-1.050;2023-02-01T10:54:44;100504.38;;;22.88;35.19
18569;BME280;14780;48.316;-1.050;2023-02-01T10:57:29;100505.19;;;22.89;35.14
18569;BME280;14780;48.316;-1.050;2023-02-01T11:00:20;100508.50;;;22.91;34.94
18569;BME280;14780;48.316;-1.050;2023-02-01T11:06:43;100523.84;;;22.92;35.00
18569;BME280;14780;48.316;-1.050;2023-02-01T11:09:28;100530.34;;;22.91;34.95
18569;BME280;14780;48.316;-1.050;2023-02-01T11:12:34;100532.03;;;22.92;35.00
18569;BME280;14780;48.316;-1.050;2023-02-01T11:15:23;100527.38;;;22.92;35.19
18569;BME280;14780;48.316;-1.050;2023-02-01T11:18:17;100530.97;;;22.93;35.13
18569;BME280;14780;48.316;-1.050;2023-02-01T11:21:03;100527.63;;;22.91;35.15
18569;BME280;14780;48.316;-1.050;2023-02-01T11:23:48;100524.88;;;22.91;35.13
18569;BME280;14780;48.316;-1.050;2023-02-01T11:26:33;100525.72;;;22.91;34.96
18569;BME280;14780;48.316;-1.050;2023-02-01T11:29:25;100523.22;;;22.90;35.03
18569;BME280;14780;48.316;-1.050;2023-02-01T11:32:17;100514.81;;;22.91;34.89
18569;BME280;14780;48.316;-1.050;2023-02-01T11:35:06;100515.03;;;22.90;34.92
18569;BME280;14780;48.316;-1.050;2023-02-01T11:37:59;100510.41;;;22.90;34.93
18569;BME280;14780;48.316;-1.050;2023-02-01T11:40:44;100490.47;;;22.90;34.72
18569;BME280;14780;48.316;-1.050;2023-02-01T11:43:29;100487.75;;;22.90;34.85
18569;BME280;14780;48.316;-1.050;2023-02-01T11:46:19;100488.81;;;22.89;34.81
18569;BME280;14780;48.316;-1.050;2023-02-01T11:49:26;100477.91;;;22.89;35.02
18569;BME280;14780;48.316;-1.050;2023-02-01T12:08:22;100492.06;;;22.97;35.07
18569;BME280;14780;48.316;-1.050;2023-02-01T12:47:49;100455.13;;;22.95;35.46
18569;BME280;14780;48.316;-1.050;2023-02-01T12:50:58;100459.28;;;22.97;35.61
18569;BME280;14780;48.316;-1.050;2023-02-01T12:54:02;100457.53;;;23.03;35.50
18569;BME280;14780;48.316;-1.050;2023-02-01T13:06:15;100441.50;;;23.06;35.61
18569;BME280;14780;48.316;-1.050;2023-02-01T13:09:14;100436.88;;;23.07;35.56
18569;BME280;14780;48.316;-1.050;2023-02-01T13:12:36;100435.22;;;23.06;35.56
18569;BME280;14780;48.316;-1.050;2023-02-01T13:15:28;100439.63;;;23.07;35.64
18569;BME280;14780;48.316;-1.050;2023-02-01T13:18:19;100429.78;;;23.06;35.66
18569;BME280;14780;48.316;-1.050;2023-02-01T13:23:53;100424.31;;;23.06;35.62
18569;BME280;14780;48.316;-1.050;2023-02-01T13:26:38;100423.47;;;23.05;35.85
18569;BME280;14780;48.316;-1.050;2023-02-01T13:29:24;100422.41;;;23.06;35.73
18569;BME280;14780;48.316;-1.050;2023-02-01T13:44:19;100417.16;;;23.05;35.88
18569;BME280;14780;48.316;-1.050;2023-02-01T13:47:29;100424.31;;;23.06;35.76
18569;BME280;14780;48.316;-1.050;2023-02-01T13:53:16;100418.22;;;23.04;35.87
18569;BME280;14780;48.316;-1.050;2023-02-01T13:56:06;100427.25;;;23.04;35.50
18569;BME280;14780;48.316;-1.050;2023-02-01T13:58:54;100418.50;;;23.02;35.64
18569;BME280;14780;48.316;-1.050;2023-02-01T14:01:39;100420.16;;;23.03;35.77
18569;BME280;14780;48.316;-1.050;2023-02-01T14:04:46;100416.34;;;23.04;35.70
18569;BME280;14780;48.316;-1.050;2023-02-01T14:07:31;100402.47;;;23.06;35.53
18569;BME280;14780;48.316;-1.050;2023-02-01T14:16:21;100408.28;;;23.09;35.76
18569;BME280;14780;48.316;-1.050;2023-02-01T14:19:31;100406.38;;;23.10;35.92
18569;BME280;14780;48.316;-1.050;2023-02-01T14:22:35;100411.38;;;23.13;35.93
18569;BME280;14780;48.316;-1.050;2023-02-01T14:25:20;100397.47;;;23.14;35.89
18569;BME280;14780;48.316;-1.050;2023-02-01T14:28:21;100408.41;;;23.14;35.92
18569;BME280;14780;48.316;-1.050;2023-02-01T14:31:17;100406.50;;;23.15;35.93
18569;BME280;14780;48.316;-1.050;2023-02-01T14:34:16;100400.47;;;23.13;35.94
18569;BME280;14780;48.316;-1.050;2023-02-01T14:37:05;100407.34;;;23.15;36.04
18569;BME280;14780;48.316;-1.050;2023-02-01T14:42:57;100403.66;;;23.10;35.80
18569;BME280;14780;48.316;-1.050;2023-02-01T14:45:46;100411.84;;;23.10;35.85
18569;BME280;14780;48.316;-1.050;2023-02-01T14:51:18;100403.66;;;23.10;35.70
18569;BME280;14780;48.316;-1.050;2023-02-01T14:54:03;100406.38;;;23.10;35.84
18569;BME280;14780;48.316;-1.050;2023-02-01T14:56:49;100397.38;;;23.09;35.91
18569;BME280;14780;48.316;-1.050;2023-02-01T14:59:35;100401.75;;;23.10;35.72
18569;BME280;14780;48.316;-1.050;2023-02-01T15:02:25;100403.06;;;23.08;35.96
18569;BME280;14780;48.316;-1.050;2023-02-01T15:05:32;100415.06;;;23.07;35.77
18569;BME280;14780;48.316;-1.050;2023-02-01T15:08:22;100417.16;;;23.05;35.77
18569;BME280;14780;48.316;-1.050;2023-02-01T15:11:15;100418.22;;;23.04;35.82
18569;BME280;14780;48.316;-1.050;2023-02-01T15:14:00;100420.38;;;23.02;35.58
18569;BME280;14780;48.316;-1.050;2023-02-01T15:16:45;100422.25;;;23.01;35.55
18569;BME280;14780;48.316;-1.050;2023-02-01T15:19:38;100426.91;;;23.01;35.65
18569;BME280;14780;48.316;-1.050;2023-02-01T15:22:23;100426.91;;;23.01;35.71
18569;BME280;14780;48.316;-1.050;2023-02-01T15:25:35;100425.84;;;23.02;35.56
18569;BME280;14780;48.316;-1.050;2023-02-01T15:28:21;100431.78;;;22.99;35.53
18569;BME280;14780;48.316;-1.050;2023-02-01T15:31:06;100439.97;;;22.99;35.65
18569;BME280;14780;48.316;-1.050;2023-02-01T15:33:58;100432.81;;;22.98;35.52
18569;BME280;14780;48.316;-1.050;2023-02-01T15:36:43;100428.41;;;22.97;35.73
18569;BME280;14780;48.316;-1.050;2023-02-01T15:39:28;100427.84;;;22.95;35.73
18569;BME280;14780;48.316;-1.050;2023-02-01T15:42:17;100430.34;;;22.96;35.73
18569;BME280;14780;48.316;-1.050;2023-02-01T15:45:04;100427.84;;;22.95;35.42
18569;BME280;14780;48.316;-1.050;2023-02-01T15:47:50;100425.94;;;22.95;35.57
18569;BME280;14780;48.316;-1.050;2023-02-01T15:50:40;100427.84;;;22.95;35.69
18569;BME280;14780;48.316;-1.050;2023-02-01T15:53:26;100420.72;;;22.94;35.55
18569;BME280;14780;48.316;-1.050;2023-02-01T15:56:15;100426.41;;;22.92;35.77
18569;BME280;14780;48.316;-1.050;2023-02-01T15:59:03;100427.25;;;22.93;35.48
18569;BME280;14780;48.316;-1.050;2023-02-01T16:01:49;100443.63;;;22.93;35.55
18569;BME280;14780;48.316;-1.050;2023-02-01T16:04:46;100450.16;;;22.92;35.59
18569;BME280;14780;48.316;-1.050;2023-02-01T16:07:35;100459.38;;;22.91;35.49
18569;BME280;14780;48.316;-1.050;2023-02-01T16:10:27;100449.53;;;22.90;35.53
18569;BME280;14780;48.316;-1.050;2023-02-01T16:13:13;100449.53;;;22.90;35.55
18569;BME280;14780;48.316;-1.050;2023-02-01T16:15:58;100446.81;;;22.90;35.46
18569;BME280;14780;48.316;-1.050;2023-02-01T16:18:43;100447.06;;;22.88;35.52
18569;BME280;14780;48.316;-1.050;2023-02-01T16:21:29;100438.63;;;22.90;35.45
18569;BME280;14780;48.316;-1.050;2023-02-01T16:24:13;100445.13;;;22.89;35.76
18569;BME280;14780;48.316;-1.050;2023-02-01T16:26:58;100446.81;;;22.90;35.65
18569;BME280;14780;48.316;-1.050;2023-02-01T16:29:43;100456.06;;;22.89;35.61
18569;BME280;14780;48.316;-1.050;2023-02-01T16:32:27;100450.38;;;22.90;35.65
18569;BME280;14780;48.316;-1.050;2023-02-01T16:35:24;100446.34;;;22.93;35.67
18569;BME280;14780;48.316;-1.050;2023-02-01T16:38:12;100449.66;;;22.95;35.57
18569;BME280;14780;48.316;-1.050;2023-02-01T16:40:57;100444.22;;;22.95;35.66
18569;BME280;14780;48.316;-1.050;2023-02-01T16:43:43;100451.31;;;22.96;35.60
18569;BME280;14780;48.316;-1.050;2023-02-01T16:49:23;100448.59;;;22.96;35.58
18569;BME280;14780;48.316;-1.050;2023-02-01T16:52:18;100451.31;;;22.96;35.52
18569;BME280;14780;48.316;-1.050;2023-02-01T16:55:12;100450.88;;;22.99;35.51
18569;BME280;14780;48.316;-1.050;2023-02-01T16:57:57;100452.53;;;23.00;35.73
18569;BME280;14780;48.316;-1.050;2023-02-01T17:00:43;100459.66;;;23.01;35.70
18569;BME280;14780;48.316;-1.050;2023-02-01T17:03:28;100465.13;;;23.01;35.66